Etusivu
METAR-TAF:

METAR-TAF

Lentoasemat :

Chhatrapati Shivajin kansainvälinen lentoasema

Mumbai, Intia

Leveyspiiri: 19-07N, Pituuspiiri: 072-51E, korkeus merenpinnasta: 8 m

Tämänhetkinen sää

Tämä raportti tehtiin 30 minuuttia sitten, kello 03.00 UTC
tyyntä
Lämpötila 29°C
Kosteus 66%
Ilmanpaine 1014 hPa
Näkyvyys: 1600 m
Muutamia pilviä 10000 ft:n korkeudessa
usvaa

METAR: VABB 210300Z 00000KT 1600 HZ FEW100 29/22 Q1014 NOSIG

Aika: 09:00 (03:30 UTC)

Sääennuste

Tämä raportti tehtiin 1 tunti ja 30 minuuttia sitten, kello 02.00 UTC
Ennuste voimassa 21. päivästä klo 03 UTC - 21. päivään klo 12 UTC
Tuuli 5 kn idästä
Näkyvyys: 1500 m
Muutamia pilviä 10000 ft:n korkeudessa
utua, usvaa
Tulossa
21. päivästä klo 07 UTC - 21. päivään klo 09 UTC
Tuuli 8 kn lännestä
Näkyvyys: 3000 m
savua

TAF: VABB 210200Z 2103/2112 09005KT 1500 BR HZ FEW100 BECMG 2107/2109 28008KT 3000 FU

Säähavainnot ja -ennusteet yli 4000 lentoasemalta (METAR- ja TAF-raportit).

Käytössä olevat sääasemat on merkitty karttaan keltaisilla ja punaisilla pisteillä.

Aseta hiiri pisteen päälle nähdäksesi sääaseman nimen.

Klikkaa sitten nähdäksesi säähavainnot ja -ennusteet.

Kartan vaihtaminen: klikkaa mustalla rastilla varustettuja vihreitä pisteitä, niin voit zoomata sisään; viivalla varustettua vihreää pistettä, niin voit zoomata ulos tai vihreitä nuolia, niin pääset viereisille kartoille.


METAR-TAF: